createdAt,value
2018-09-12T00:01:48.545Z,1.50
2018-09-12T00:04:16.421Z,1.40
2018-09-12T00:06:44.546Z,1.40
2018-09-12T00:09:12.738Z,1.50
2018-09-12T00:11:40.931Z,1.23
2018-09-12T00:14:09.076Z,1.40
2018-09-12T00:16:37.376Z,1.30
2018-09-12T00:19:05.620Z,1.47
2018-09-12T00:21:33.593Z,1.60
2018-09-12T00:24:01.654Z,1.27
2018-09-12T00:26:29.555Z,1.33
2018-09-12T00:28:57.450Z,1.30
2018-09-12T00:31:25.346Z,1.70
2018-09-12T00:33:53.321Z,1.30
2018-09-12T00:36:21.216Z,1.23
2018-09-12T00:38:49.093Z,1.40
2018-09-12T00:41:16.995Z,1.20
2018-09-12T00:43:44.997Z,1.40
2018-09-12T00:46:13.082Z,1.40
2018-09-12T00:48:40.961Z,1.20
2018-09-12T00:51:08.870Z,1.40
2018-09-12T00:53:36.751Z,1.50
2018-09-12T00:56:04.645Z,1.40
2018-09-12T00:58:32.531Z,1.30
2018-09-12T01:01:00.434Z,1.30
2018-09-12T01:03:28.338Z,1.47
2018-09-12T01:05:56.234Z,1.50
2018-09-12T01:08:24.182Z,1.43
2018-09-12T01:10:52.082Z,1.40
2018-09-12T01:13:19.962Z,1.33
2018-09-12T01:15:47.866Z,1.50
2018-09-12T01:18:19.757Z,1.20
2018-09-12T01:20:48.568Z,1.50
2018-09-12T01:23:16.477Z,1.43
2018-09-12T01:25:44.910Z,1.30
2018-09-12T01:28:12.789Z,1.30
2018-09-12T01:30:40.701Z,1.30
2018-09-12T01:33:08.585Z,1.30
2018-09-12T01:35:36.490Z,1.60
2018-09-12T01:38:04.626Z,1.30
2018-09-12T01:40:32.504Z,1.40
2018-09-12T01:43:00.401Z,1.50
2018-09-12T01:45:28.321Z,1.20
2018-09-12T01:47:56.402Z,1.47
2018-09-12T01:50:24.295Z,1.40
2018-09-12T01:52:52.206Z,1.40
2018-09-12T01:55:20.094Z,1.63
2018-09-12T01:57:47.995Z,1.47
2018-09-12T02:00:17.277Z,1.40
2018-09-12T02:02:45.979Z,1.50
2018-09-12T02:05:13.856Z,1.60
2018-09-12T02:07:41.766Z,1.33
2018-09-12T02:10:11.201Z,1.60
2018-09-12T02:12:39.686Z,1.40
2018-09-12T02:15:07.593Z,1.20
2018-09-12T02:17:35.631Z,1.30
2018-09-12T02:20:03.900Z,1.40
2018-09-12T02:22:31.981Z,1.60
2018-09-12T02:24:59.871Z,1.60
2018-09-12T02:27:27.929Z,1.50
2018-09-12T02:29:55.847Z,1.43
2018-09-12T02:32:23.843Z,1.40
2018-09-12T02:34:51.892Z,1.50
2018-09-12T02:37:19.982Z,1.23
2018-09-12T02:39:47.880Z,1.30
2018-09-12T02:42:15.773Z,1.60
2018-09-12T02:44:43.869Z,1.33
2018-09-12T02:47:17.453Z,1.50
2018-09-12T02:49:45.542Z,1.30
2018-09-12T02:52:13.658Z,1.30
2018-09-12T02:54:41.682Z,1.30
2018-09-12T02:57:09.578Z,1.47
2018-09-12T02:59:37.469Z,1.50
2018-09-12T03:02:05.369Z,1.37
2018-09-12T03:04:33.481Z,1.30
2018-09-12T03:07:01.442Z,1.30
2018-09-12T03:09:29.326Z,1.33
2018-09-12T03:11:57.275Z,1.50
2018-09-12T03:14:25.289Z,1.60
2018-09-12T03:16:53.189Z,1.60
2018-09-12T03:19:21.161Z,1.60
2018-09-12T03:21:49.376Z,1.40
2018-09-12T03:24:17.262Z,1.60
2018-09-12T03:26:45.387Z,1.53
2018-09-12T03:29:13.303Z,1.50
2018-09-12T03:31:41.214Z,1.60
2018-09-12T03:34:09.115Z,1.47
2018-09-12T03:36:37.085Z,1.30
2018-09-12T03:39:07.001Z,1.30
2018-09-12T03:41:35.037Z,1.40
2018-09-12T03:44:03.045Z,1.40
2018-09-12T03:46:31.182Z,1.30
2018-09-12T03:48:59.077Z,1.20
2018-09-12T03:51:27.014Z,1.47
2018-09-12T03:53:54.919Z,1.43
2018-09-12T03:56:22.877Z,1.20
2018-09-12T03:58:50.741Z,1.50
2018-09-12T04:01:18.681Z,1.20
2018-09-12T04:03:46.574Z,1.60
2018-09-12T04:06:14.526Z,1.30
2018-09-12T04:08:42.426Z,1.40
2018-09-12T04:11:10.317Z,1.60
2018-09-12T04:13:38.445Z,1.50
2018-09-12T04:16:06.505Z,1.30
2018-09-12T04:18:34.410Z,1.53
2018-09-12T04:21:02.329Z,1.40
2018-09-12T04:23:30.430Z,1.50
2018-09-12T04:25:58.482Z,1.63
2018-09-12T04:28:26.562Z,1.20
2018-09-12T04:30:54.582Z,1.43
2018-09-12T04:33:22.705Z,1.50
2018-09-12T04:35:50.604Z,1.40
2018-09-12T04:38:18.506Z,1.40
2018-09-12T04:40:46.393Z,1.53
2018-09-12T04:43:14.286Z,1.30
2018-09-12T04:45:42.418Z,1.30
2018-09-12T04:48:10.319Z,1.40
2018-09-12T04:50:38.279Z,1.40
2018-09-12T04:53:06.173Z,1.40
2018-09-12T04:55:34.046Z,1.30
2018-09-12T04:58:01.974Z,1.40
2018-09-12T05:00:29.862Z,1.50
2018-09-12T05:02:57.735Z,1.30
2018-09-12T05:05:25.631Z,1.50
2018-09-12T05:07:53.541Z,1.40
2018-09-12T05:10:21.681Z,1.30
2018-09-12T05:12:49.501Z,1.20
2018-09-12T05:15:17.464Z,1.40
2018-09-12T05:17:45.347Z,1.37
2018-09-12T05:20:13.245Z,1.60
2018-09-12T05:22:41.390Z,1.20
2018-09-12T05:25:09.285Z,1.30
2018-09-12T05:27:37.163Z,1.40
2018-09-12T05:30:05.089Z,1.50
2018-09-12T05:32:33.065Z,1.30
2018-09-12T05:35:01.238Z,1.50
2018-09-12T05:37:29.126Z,1.50
2018-09-12T05:39:57.016Z,1.50
2018-09-12T05:42:24.902Z,1.43
2018-09-12T05:44:53.093Z,1.60
2018-09-12T05:47:21.146Z,1.50
2018-09-12T05:49:49.229Z,1.53
2018-09-12T05:52:17.108Z,1.70
2018-09-12T05:54:45.006Z,1.30
2018-09-12T05:57:13.117Z,1.47
2018-09-12T05:59:41.210Z,1.47
2018-09-12T06:02:09.093Z,1.50
2018-09-12T06:04:36.998Z,1.40
2018-09-12T06:07:04.952Z,1.27
2018-09-12T06:09:32.798Z,2.80
2018-09-12T06:12:00.934Z,3.17
2018-09-12T06:14:28.821Z,4.00
2018-09-12T06:16:56.770Z,5.77
2018-09-12T06:19:24.867Z,12.07
2018-09-12T06:21:52.914Z,10.70
2018-09-12T06:24:20.926Z,9.40
2018-09-12T06:26:49.082Z,8.67
2018-09-12T06:29:16.993Z,9.70
2018-09-12T06:31:44.966Z,9.33
2018-09-12T06:34:12.865Z,8.20
2018-09-12T06:36:43.488Z,8.13
2018-09-12T06:39:12.676Z,7.83
2018-09-12T06:41:40.521Z,7.87
2018-09-12T06:44:08.566Z,8.10
2018-09-12T06:46:36.633Z,8.20
2018-09-12T06:49:05.193Z,8.10
2018-09-12T06:51:33.089Z,6.97
2018-09-12T06:54:01.016Z,7.40
2018-09-12T06:56:29.206Z,7.63
2018-09-12T06:58:57.254Z,7.07
2018-09-12T07:01:25.146Z,7.80
2018-09-12T07:03:53.032Z,7.80
2018-09-12T07:06:21.181Z,7.40
2018-09-12T07:08:49.238Z,8.10
2018-09-12T07:11:17.328Z,8.07
2018-09-12T07:13:45.392Z,10.10
2018-09-12T07:16:13.448Z,36.23
2018-09-12T07:18:41.362Z,34.10
2018-09-12T07:21:09.237Z,27.20
2018-09-12T07:23:37.108Z,28.20
2018-09-12T07:26:05.140Z,23.60
2018-09-12T07:28:33.193Z,20.57
2018-09-12T07:31:01.282Z,20.77
2018-09-12T07:33:29.319Z,19.90
2018-09-12T07:35:57.229Z,20.40
2018-09-12T07:38:25.245Z,17.63
2018-09-12T07:40:53.157Z,17.07
2018-09-12T07:43:21.057Z,15.43
2018-09-12T07:45:49.077Z,14.40
2018-09-12T07:48:17.291Z,15.70
2018-09-12T07:50:49.254Z,14.60
2018-09-12T07:53:17.726Z,16.10
2018-09-12T07:55:45.670Z,15.50
2018-09-12T07:58:13.553Z,14.13
2018-09-12T08:00:41.576Z,13.00
2018-09-12T08:03:09.888Z,13.10
2018-09-12T08:05:37.978Z,12.93
2018-09-12T08:08:05.917Z,11.83
2018-09-12T08:10:33.818Z,12.27
2018-09-12T08:13:01.895Z,11.80
2018-09-12T08:15:29.810Z,11.83
2018-09-12T08:17:57.709Z,10.70
2018-09-12T08:20:25.649Z,11.13
2018-09-12T08:22:53.767Z,10.20
2018-09-12T08:25:21.658Z,9.87
2018-09-12T08:27:49.558Z,10.83
2018-09-12T08:30:18.941Z,10.90
2018-09-12T08:32:46.842Z,11.13
2018-09-12T08:35:16.268Z,11.17
2018-09-12T08:37:44.351Z,11.20
2018-09-12T08:40:12.710Z,11.00
2018-09-12T08:42:40.682Z,11.43
2018-09-12T08:45:08.514Z,10.40
2018-09-12T08:47:36.500Z,10.17
2018-09-12T08:50:04.714Z,10.20
2018-09-12T08:52:32.613Z,9.63
2018-09-12T08:55:00.597Z,9.43
2018-09-12T08:57:28.506Z,9.80
2018-09-12T08:59:56.429Z,9.10
2018-09-12T09:02:24.342Z,8.73
2018-09-12T09:04:52.407Z,8.60
2018-09-12T09:07:21.180Z,8.97
2018-09-12T09:09:49.066Z,9.20
2018-09-12T09:12:17.105Z,9.33
2018-09-12T09:14:45.057Z,8.47
2018-09-12T09:17:12.959Z,9.47
2018-09-12T09:19:41.001Z,9.80
2018-09-12T09:22:09.078Z,8.80
2018-09-12T09:24:36.962Z,8.90
2018-09-12T09:27:05.057Z,9.20
2018-09-12T09:29:33.474Z,9.63
2018-09-12T09:32:01.531Z,9.97
2018-09-12T09:34:29.435Z,9.53
2018-09-12T09:36:57.349Z,9.27
2018-09-12T09:39:25.250Z,8.23
2018-09-12T09:41:53.358Z,8.70
2018-09-12T09:44:21.251Z,8.93
2018-09-12T09:46:49.138Z,8.57
2018-09-12T09:49:17.189Z,8.73
2018-09-12T09:51:45.054Z,8.97
2018-09-12T09:54:12.966Z,9.40
2018-09-12T09:56:41.170Z,10.27
2018-09-12T09:59:09.924Z,11.13
2018-09-12T10:01:43.422Z,10.50
2018-09-12T10:04:16.776Z,10.77
2018-09-12T10:06:50.206Z,10.90
2018-09-12T10:09:23.792Z,9.83
2018-09-12T10:11:51.711Z,9.87
2018-09-12T10:14:19.769Z,8.37
2018-09-12T10:16:47.822Z,8.40
2018-09-12T10:19:15.717Z,8.17
2018-09-12T10:21:43.601Z,8.10
2018-09-12T10:24:11.595Z,46.97
2018-09-12T10:26:39.418Z,20.23
2018-09-12T10:29:07.343Z,23.83
2018-09-12T10:31:35.234Z,14.50
2018-09-12T10:34:03.141Z,15.50
2018-09-12T10:36:31.009Z,13.93
2018-09-12T10:38:58.926Z,12.10
2018-09-12T10:41:26.994Z,12.13
2018-09-12T10:43:54.902Z,9.90
2018-09-12T10:46:22.794Z,9.53
2018-09-12T10:48:50.684Z,10.67
2018-09-12T10:51:18.808Z,9.73
2018-09-12T10:53:48.329Z,10.27
2018-09-12T10:56:16.988Z,9.37
2018-09-12T10:58:45.042Z,7.57
2018-09-12T11:01:12.908Z,7.43
2018-09-12T11:03:40.784Z,6.90
2018-09-12T11:06:13.826Z,6.83
2018-09-12T11:08:41.709Z,5.50
2018-09-12T11:11:09.820Z,5.47
2018-09-12T11:13:42.345Z,5.80
2018-09-12T11:16:10.565Z,4.90
2018-09-12T11:18:38.444Z,4.70
2018-09-12T11:21:06.495Z,4.83
2018-09-12T11:26:15.660Z,8.80
2018-09-12T11:28:43.716Z,7.30
2018-09-12T11:31:11.589Z,68.73
2018-09-12T11:33:39.566Z,37.83
2018-09-12T11:36:09.274Z,34.07
2018-09-12T11:38:38.076Z,28.03
2018-09-12T11:41:06.997Z,25.17
2018-09-12T11:43:35.743Z,18.67
2018-09-12T11:46:05.039Z,18.87
2018-09-12T11:48:33.927Z,14.07
2018-09-12T11:51:03.847Z,14.87
2018-09-12T11:53:32.752Z,15.40
2018-09-12T11:56:02.075Z,13.20
2018-09-12T12:01:06.569Z,10.77
2018-09-12T12:03:35.712Z,10.70
2018-09-12T12:06:04.628Z,8.53
2018-09-12T12:08:35.616Z,9.13
2018-09-12T12:11:05.303Z,6.93
2018-09-12T12:13:34.252Z,6.77
2018-09-12T12:16:03.479Z,6.17
2018-09-12T12:18:32.462Z,5.50
2018-09-12T12:21:01.543Z,5.67
2018-09-12T12:23:31.161Z,4.70
2018-09-12T12:26:00.188Z,4.23
2018-09-12T12:28:37.024Z,4.13
2018-09-12T12:31:04.937Z,3.93
2018-09-12T12:33:33.426Z,3.57
2018-09-12T12:36:01.339Z,3.37
2018-09-12T12:38:29.262Z,2.87
2018-09-12T12:40:57.178Z,3.40
2018-09-12T12:43:25.129Z,3.20
2018-09-12T12:45:53.226Z,3.40
2018-09-12T12:48:21.277Z,3.60
2018-09-12T12:53:25.974Z,3.20
2018-09-12T12:55:54.101Z,3.47
2018-09-12T12:58:21.979Z,3.20
2018-09-12T13:00:50.249Z,3.07
2018-09-12T13:03:18.298Z,3.50
2018-09-12T13:05:46.646Z,2.97
2018-09-12T13:08:15.817Z,2.80
2018-09-12T13:10:43.760Z,2.60
2018-09-12T13:13:11.641Z,2.37
2018-09-12T13:15:39.546Z,2.50
2018-09-12T13:18:07.655Z,2.30
2018-09-12T13:20:35.598Z,1.90
2018-09-12T13:23:03.534Z,2.30
2018-09-12T13:25:31.646Z,2.20
2018-09-12T13:27:59.623Z,2.27
2018-09-12T13:30:27.486Z,2.00
2018-09-12T13:32:55.386Z,1.80
2018-09-12T13:35:23.277Z,1.57
2018-09-12T13:37:51.289Z,1.50
2018-09-12T13:40:19.174Z,1.90
2018-09-12T13:42:47.455Z,1.70
2018-09-12T13:45:15.337Z,1.40
2018-09-12T13:47:43.726Z,1.60
2018-09-12T13:50:15.067Z,1.57
2018-09-12T13:52:43.232Z,1.40
2018-09-12T13:55:11.139Z,1.80
2018-09-12T13:57:39.230Z,1.43
2018-09-12T14:00:07.456Z,11.70
2018-09-12T14:02:35.530Z,35.37
2018-09-12T14:05:03.803Z,24.83
2018-09-12T14:07:31.998Z,21.77
2018-09-12T14:10:00.002Z,19.07
2018-09-12T14:12:28.198Z,17.43
2018-09-12T14:14:56.257Z,15.13
2018-09-12T14:17:24.366Z,13.63
2018-09-12T14:19:52.535Z,9.27
2018-09-12T14:22:20.479Z,11.37
2018-09-12T14:24:48.533Z,10.50
2018-09-12T14:27:16.447Z,10.73
2018-09-12T14:29:44.371Z,10.10
2018-09-12T14:32:12.512Z,8.80
2018-09-12T14:34:40.349Z,7.97
2018-09-12T14:37:08.237Z,7.97
2018-09-12T14:39:36.435Z,7.30
2018-09-12T14:42:04.291Z,6.53
2018-09-12T14:44:32.140Z,5.77
2018-09-12T14:47:00.301Z,6.40
2018-09-12T14:49:28.302Z,6.20
2018-09-12T14:51:56.185Z,5.73
2018-09-12T14:54:24.382Z,6.70
2018-09-12T14:56:52.281Z,5.50
2018-09-12T14:59:20.202Z,5.93
2018-09-12T15:01:48.267Z,5.50
2018-09-12T15:04:16.993Z,5.40
2018-09-12T15:06:44.881Z,4.37
2018-09-12T15:09:12.929Z,4.60
2018-09-12T15:11:40.877Z,4.20
2018-09-12T15:14:08.993Z,4.20
2018-09-12T15:16:37.001Z,4.27
2018-09-12T15:19:04.904Z,4.10
2018-09-12T15:21:32.990Z,3.40
2018-09-12T15:24:00.922Z,3.20
2018-09-12T15:26:28.982Z,3.97
2018-09-12T15:28:56.942Z,3.77
2018-09-12T15:31:25.246Z,4.20
2018-09-12T15:33:53.207Z,3.47
2018-09-12T15:36:21.095Z,3.23
2018-09-12T15:38:49.341Z,2.90
2018-09-12T15:41:17.265Z,3.10
2018-09-12T15:43:45.162Z,3.20
2018-09-12T15:46:13.538Z,3.13
2018-09-12T15:48:41.421Z,2.70
2018-09-12T15:51:09.356Z,3.03
2018-09-12T15:53:37.237Z,2.60
2018-09-12T15:56:05.143Z,3.00
2018-09-12T15:58:33.281Z,3.13
2018-09-12T16:01:01.182Z,3.23
2018-09-12T16:03:29.078Z,2.80
2018-09-12T16:05:56.956Z,3.33
2018-09-12T16:08:24.874Z,3.63
2018-09-12T16:10:52.898Z,3.57
2018-09-12T16:13:21.102Z,3.43
2018-09-12T16:15:49.019Z,3.10
2018-09-12T16:18:16.919Z,3.30
2018-09-12T16:20:44.873Z,2.60
2018-09-12T16:23:12.769Z,3.53
2018-09-12T16:25:40.658Z,2.73
2018-09-12T16:28:08.561Z,3.00
2018-09-12T16:30:36.694Z,3.30
2018-09-12T16:33:04.774Z,2.77
2018-09-12T16:35:32.824Z,2.93
2018-09-12T16:38:00.801Z,2.67
2018-09-12T16:40:28.705Z,2.40
2018-09-12T16:42:56.747Z,2.67
2018-09-12T16:45:24.645Z,3.03
2018-09-12T16:47:52.541Z,3.17
2018-09-12T16:50:20.445Z,2.80
2018-09-12T16:52:48.590Z,3.27
2018-09-12T16:55:16.607Z,2.90
2018-09-12T16:57:44.485Z,2.63
2018-09-12T17:00:12.493Z,3.00
2018-09-12T17:02:40.407Z,2.33
2018-09-12T17:05:08.296Z,2.63
2018-09-12T17:07:36.218Z,2.70
2018-09-12T17:10:04.110Z,2.77
2018-09-12T17:12:32.010Z,2.67
2018-09-12T17:14:59.906Z,2.30
2018-09-12T17:17:27.814Z,2.80
2018-09-12T17:19:55.702Z,2.40
2018-09-12T17:22:23.615Z,2.97
2018-09-12T17:24:51.495Z,2.20
2018-09-12T17:27:19.410Z,2.20
2018-09-12T17:29:47.326Z,2.60
2018-09-12T17:32:15.249Z,2.50
2018-09-12T17:34:43.146Z,2.80
2018-09-12T17:37:11.054Z,2.10
2018-09-12T17:39:39.007Z,2.50
2018-09-12T17:42:06.913Z,2.57
2018-09-12T17:44:34.805Z,2.57
2018-09-12T17:47:02.725Z,2.33
2018-09-12T17:49:30.617Z,2.50
2018-09-12T17:51:58.733Z,2.30
2018-09-12T17:54:26.629Z,2.00
2018-09-12T17:56:54.542Z,2.27
2018-09-12T17:59:22.443Z,2.60
2018-09-12T18:01:50.708Z,1.87
2018-09-12T18:04:18.607Z,2.43
2018-09-12T18:06:46.520Z,2.40
2018-09-12T18:09:14.417Z,2.20
2018-09-12T18:11:42.333Z,2.27
2018-09-12T18:14:10.221Z,2.00
2018-09-12T18:16:38.129Z,2.33
2018-09-12T18:19:06.277Z,2.07
2018-09-12T18:21:34.185Z,2.10
2018-09-12T18:24:02.082Z,2.10
2018-09-12T18:26:29.997Z,2.20
2018-09-12T18:28:58.017Z,2.60
2018-09-12T18:31:25.909Z,2.10
2018-09-12T18:33:53.835Z,2.03
2018-09-12T18:36:21.726Z,2.40
2018-09-12T18:38:49.639Z,2.17
2018-09-12T18:41:17.526Z,2.20
2018-09-12T18:43:45.429Z,2.70
2018-09-12T18:46:13.526Z,2.30
2018-09-12T18:48:41.437Z,1.90
2018-09-12T18:51:10.310Z,2.60
2018-09-12T18:53:38.910Z,1.90
2018-09-12T18:56:06.809Z,2.20
2018-09-12T18:58:34.949Z,1.90
2018-09-12T19:01:02.844Z,2.30
2018-09-12T19:03:30.747Z,2.00
2018-09-12T19:05:58.689Z,2.10
2018-09-12T19:08:26.618Z,2.47
2018-09-12T19:10:54.518Z,2.17
2018-09-12T19:13:22.532Z,1.93
2018-09-12T19:15:50.714Z,2.30
2018-09-12T19:18:18.792Z,2.10
2018-09-12T19:20:47.370Z,2.13
2018-09-12T19:23:15.282Z,2.10
2018-09-12T19:25:43.175Z,2.00
2018-09-12T19:28:11.078Z,2.17
2018-09-12T19:30:39.001Z,2.27
2018-09-12T19:33:06.919Z,1.87
2018-09-12T19:35:34.838Z,2.10
2018-09-12T19:38:02.751Z,2.13
2018-09-12T19:40:30.678Z,2.20
2018-09-12T19:42:58.596Z,1.97
2018-09-12T19:45:26.494Z,1.97
2018-09-12T19:47:54.608Z,2.27
2018-09-12T19:50:22.433Z,1.90
2018-09-12T19:52:50.341Z,1.90
2018-09-12T19:55:18.242Z,2.27
2018-09-12T19:57:46.145Z,2.20
2018-09-12T20:00:16.101Z,1.53
2018-09-12T20:02:43.997Z,1.77
2018-09-12T20:05:11.910Z,1.80
2018-09-12T20:07:39.801Z,1.73
2018-09-12T20:10:07.738Z,1.60
2018-09-12T20:12:35.630Z,1.80
2018-09-12T20:15:03.534Z,2.17
2018-09-12T20:17:31.495Z,2.17
2018-09-12T20:19:59.410Z,1.70
2018-09-12T20:22:27.334Z,1.60
2018-09-12T20:24:55.254Z,1.83
2018-09-12T20:27:23.159Z,1.90
2018-09-12T20:29:51.346Z,1.77
2018-09-12T20:32:19.189Z,1.83
2018-09-12T20:34:47.110Z,1.70
2018-09-12T20:37:15.032Z,1.80
2018-09-12T20:39:43.306Z,1.60
2018-09-12T20:42:11.197Z,1.70
2018-09-12T20:44:39.558Z,1.50
2018-09-12T20:47:07.466Z,1.90
2018-09-12T20:49:35.374Z,1.87
2018-09-12T20:52:03.269Z,1.70
2018-09-12T20:54:31.182Z,1.90
2018-09-12T20:56:59.078Z,1.67
2018-09-12T20:59:26.990Z,1.60
2018-09-12T21:01:54.882Z,1.60
2018-09-12T21:04:23.073Z,1.60
2018-09-12T21:06:50.981Z,1.70
2018-09-12T21:09:18.875Z,1.60
2018-09-12T21:11:46.961Z,1.57
2018-09-12T21:14:14.880Z,1.60
2018-09-12T21:16:42.783Z,1.80
2018-09-12T21:19:10.694Z,1.73
2018-09-12T21:21:38.589Z,1.77
2018-09-12T21:24:06.505Z,1.63
2018-09-12T21:26:34.393Z,1.60
2018-09-12T21:29:02.322Z,1.50
2018-09-12T21:31:30.220Z,1.97
2018-09-12T21:33:58.392Z,1.50
2018-09-12T21:36:26.291Z,1.53
2018-09-12T21:38:54.194Z,1.40
2018-09-12T21:41:22.108Z,1.40
2018-09-12T21:43:50.018Z,1.47
2018-09-12T21:46:17.942Z,1.67
2018-09-12T21:48:45.886Z,1.43
2018-09-12T21:51:13.820Z,1.43
2018-09-12T21:53:41.701Z,1.60
2018-09-12T21:56:09.729Z,1.30
2018-09-12T21:58:37.628Z,1.50
2018-09-12T22:01:05.553Z,1.60
2018-09-12T22:03:33.522Z,1.30
2018-09-12T22:06:01.434Z,1.30
2018-09-12T22:08:29.330Z,1.40
2018-09-12T22:10:57.242Z,1.47
2018-09-12T22:13:25.161Z,1.40
2018-09-12T22:15:53.071Z,1.60
2018-09-12T22:18:20.965Z,1.23
2018-09-12T22:20:48.885Z,1.27
2018-09-12T22:23:16.773Z,1.50
2018-09-12T22:25:44.697Z,1.70
2018-09-12T22:28:12.601Z,1.50
2018-09-12T22:30:40.529Z,1.37
2018-09-12T22:33:08.430Z,1.43
2018-09-12T22:35:36.342Z,1.17
2018-09-12T22:38:04.237Z,1.30
2018-09-12T22:40:32.145Z,1.33
2018-09-12T22:43:00.046Z,1.30
2018-09-12T22:45:27.962Z,1.40
2018-09-12T22:47:58.377Z,1.23
2018-09-12T22:50:26.286Z,1.23
2018-09-12T22:52:54.186Z,1.20
2018-09-12T22:55:22.098Z,1.30
2018-09-12T22:57:49.993Z,1.33
2018-09-12T23:00:17.907Z,1.40
2018-09-12T23:02:45.807Z,1.17
2018-09-12T23:05:13.722Z,1.20
2018-09-12T23:07:41.613Z,1.20
2018-09-12T23:10:09.530Z,1.17
2018-09-12T23:12:37.433Z,1.40
2018-09-12T23:15:05.323Z,1.30
2018-09-12T23:17:33.402Z,1.50
2018-09-12T23:20:01.301Z,1.30
2018-09-12T23:22:29.218Z,1.33
2018-09-12T23:24:57.101Z,1.20
2018-09-12T23:27:25.017Z,1.20
2018-09-12T23:29:53.163Z,1.30
2018-09-12T23:32:21.046Z,1.10
2018-09-12T23:34:48.942Z,1.10
2018-09-12T23:37:16.854Z,1.30
2018-09-12T23:39:44.754Z,1.30
2018-09-12T23:42:12.877Z,1.30
2018-09-12T23:44:40.781Z,1.30
2018-09-12T23:47:08.697Z,1.17
2018-09-12T23:49:36.597Z,1.00
2018-09-12T23:52:04.510Z,1.20
2018-09-12T23:54:32.401Z,1.20
2018-09-12T23:57:00.309Z,1.40
2018-09-12T23:59:28.225Z,1.13
